Time;durP1;ratioP1;P1;durP2;ratioP2;P2;SDS_P1;SDS_P2;PMS_P1;PMS_P2;Temp;Humidity;BMP_temperature;BMP_pressure;BME280_temperature;BME280_humidity;BME280_pressure;Samples;Min_cycle;Max_cycle;Signal;HPM_P1;HPM_P2
2022/12/04 00:00:16;;;;;;;49.28;22.92;;;1.00;99.90;;;-144.05;69.86;125687.94;5012304;28;20030;-86
2022/12/04 00:02:42;;;;;;;49.17;21.80;;;1.00;99.90;;;-144.05;70.16;125687.94;5012451;28;20116;-86
2022/12/04 00:05:09;;;;;;;47.15;22.73;;;1.00;99.90;;;-144.05;70.36;125687.94;5012778;28;20057;-87
2022/12/04 00:07:35;;;;;;;53.10;21.48;;;1.00;99.90;;;-144.05;71.13;125687.94;5013959;28;20034;-86
2022/12/04 00:10:02;;;;;;;50.20;22.10;;;1.00;99.90;;;-144.05;70.48;125687.94;5012308;28;20040;-85
2022/12/04 00:12:28;;;;;;;51.25;21.65;;;1.00;99.90;;;-144.05;70.79;125687.94;5013067;28;20036;-84
2022/12/04 00:14:54;;;;;;;49.95;21.80;;;1.00;99.90;;;-144.05;70.59;125687.94;5012228;28;20030;-83
2022/12/04 00:17:20;;;;;;;51.70;21.73;;;1.00;99.90;;;-144.05;70.85;125687.94;5011651;28;20030;-85
2022/12/04 00:19:46;;;;;;;48.08;20.33;;;1.00;99.90;;;-144.05;70.78;125687.94;5013183;28;20363;-86
2022/12/04 00:22:12;;;;;;;48.60;20.13;;;1.00;99.90;;;-144.05;71.23;125687.94;5012635;28;20095;-86
2022/12/04 00:24:38;;;;;;;45.45;20.42;;;1.00;99.90;;;-144.05;70.76;125687.94;5014198;28;20041;-83
2022/12/04 00:27:04;;;;;;;46.40;21.77;;;1.00;99.90;;;-144.05;71.01;125687.94;5012457;28;20034;-83
2022/12/04 00:29:29;;;;;;;48.20;21.08;;;0.90;99.90;;;-144.05;70.50;125687.94;5013421;28;20088;-84
2022/12/04 00:31:55;;;;;;;47.17;21.17;;;1.00;99.90;;;-144.05;70.71;125687.94;5013579;28;20406;-83
2022/12/04 00:34:21;;;;;;;43.35;21.05;;;1.00;99.90;;;-144.05;70.28;125687.94;5012371;28;20424;-84
2022/12/04 00:36:47;;;;;;;46.30;19.55;;;1.00;99.90;;;-144.05;70.12;125687.94;5012716;28;20037;-85
2022/12/04 00:39:13;;;;;;;54.03;22.58;;;1.00;99.90;;;-144.05;70.53;125687.94;5012024;28;20393;-84
2022/12/04 00:41:39;;;;;;;52.88;21.98;;;1.00;99.90;;;-144.05;70.53;125687.94;5011842;28;20034;-86
2022/12/04 00:44:05;;;;;;;49.47;21.52;;;1.00;99.90;;;-144.05;70.41;125687.94;5013408;28;20034;-84
2022/12/04 00:46:31;;;;;;;49.45;21.10;;;1.00;99.90;;;-144.05;70.19;125687.94;5012621;28;20072;-86
2022/12/04 00:49:00;;;;;;;50.97;22.20;;;1.00;99.90;;;-144.05;70.31;125687.94;5012356;28;20069;-87
2022/12/04 00:51:26;;;;;;;46.55;21.58;;;1.00;99.90;;;-144.05;70.45;125687.94;5012342;28;20383;-88
2022/12/04 00:53:53;;;;;;;50.88;22.58;;;1.00;99.90;;;-144.05;70.47;125687.94;5012320;28;20034;-85
2022/12/04 00:56:25;;;;;;;42.58;20.80;;;1.00;99.90;;;-144.05;70.64;125687.94;5012736;28;20496;-85
2022/12/04 00:58:55;;;;;;;48.92;21.70;;;1.00;99.90;;;-144.05;70.43;125687.94;5012532;28;20409;-85
2022/12/04 01:01:23;;;;;;;49.55;21.58;;;1.00;99.90;;;-144.05;70.37;125687.94;5012598;28;20477;-88
2022/12/04 01:03:50;;;;;;;51.63;22.95;;;1.00;99.90;;;-144.05;71.18;125687.94;5017144;28;20040;-85
2022/12/04 01:06:33;;;;;;;50.10;21.70;;;0.90;99.90;;;-144.05;71.18;125687.94;5018569;28;20036;-85
2022/12/04 01:09:04;;;;;;;51.28;21.77;;;0.90;99.90;;;-144.05;70.56;125687.94;5018668;28;20092;-87
2022/12/04 01:11:31;;;;;;;49.40;22.58;;;0.90;99.90;;;-144.05;70.40;125687.94;5029737;28;20140;-87
2022/12/04 01:13:59;;;;;;;46.80;21.17;;;1.00;99.90;;;-144.05;70.47;125687.94;5018156;28;20065;-85
2022/12/04 01:16:33;;;;;;;50.20;21.30;;;1.00;99.90;;;-144.05;71.19;125687.94;5014828;28;20076;-84
2022/12/04 01:19:00;;;;;;;51.67;21.05;;;0.90;99.90;;;-144.05;70.86;125687.94;5016941;28;20533;-85
2022/12/04 01:21:26;;;;;;;49.03;21.98;;;0.90;99.90;;;-144.05;70.67;125687.94;5016408;28;20056;-85
2022/12/04 01:23:53;;;;;;;48.08;21.63;;;1.00;99.90;;;-144.05;70.73;125687.94;5015453;28;20464;-84
2022/12/04 01:26:20;;;;;;;48.53;21.85;;;1.00;99.90;;;-144.05;70.73;125687.94;5015138;28;20037;-85
2022/12/04 01:28:46;;;;;;;50.55;22.52;;;1.00;99.90;;;-144.05;71.09;125687.94;5015167;28;20069;-83
2022/12/04 01:31:17;;;;;;;49.28;21.40;;;0.90;99.90;;;-144.05;70.86;125687.94;5015148;28;20062;-86
2022/12/04 01:33:44;;;;;;;49.60;22.00;;;0.90;99.90;;;-144.05;71.05;125687.94;5015666;28;20444;-84
2022/12/04 01:36:22;;;;;;;41.95;20.15;;;0.90;99.90;;;-144.05;71.52;125687.94;5015488;28;20226;-85
2022/12/04 01:38:49;;;;;;;50.28;22.02;;;0.90;99.90;;;-144.05;70.78;125687.94;5015479;28;20118;-85
2022/12/04 01:41:26;;;;;;;46.45;21.27;;;0.90;99.90;;;-144.05;71.00;125687.94;5015391;28;20045;-84
2022/12/04 01:44:23;;;;;;;47.70;21.33;;;0.90;99.90;;;-144.05;70.97;125687.94;5015042;28;20475;-84
2022/12/04 01:47:00;;;;;;;44.85;20.33;;;0.90;99.90;;;-144.05;70.73;125687.94;5015177;28;20033;-87
2022/12/04 01:49:47;;;;;;;52.17;21.00;;;0.90;99.90;;;-144.05;70.87;125687.94;5015527;28;20034;-86
2022/12/04 01:52:20;;;;;;;42.95;21.00;;;0.90;99.90;;;-144.05;70.72;125687.94;5015547;28;20485;-87
2022/12/04 01:55:00;;;;;;;46.70;20.55;;;0.90;99.90;;;-144.05;70.67;125687.94;5015212;28;20029;-86
2022/12/04 01:57:31;;;;;;;43.90;19.67;;;1.00;99.90;;;-144.05;70.72;125687.94;5016462;28;20053;-85
2022/12/04 02:00:08;;;;;;;39.80;19.13;;;1.00;99.90;;;-144.05;70.58;125687.94;5014759;28;20338;-85
2022/12/04 02:02:45;;;;;;;46.00;19.65;;;1.00;99.90;;;-144.05;71.02;125687.94;5015803;28;20041;-83
2022/12/04 02:05:18;;;;;;;50.15;20.95;;;0.90;99.90;;;-144.05;71.58;125687.94;5014811;28;20045;-84
2022/12/04 02:07:51;;;;;;;41.83;20.92;;;0.90;99.90;;;-144.05;71.51;125687.94;5016041;28;20042;-86
2022/12/04 02:10:23;;;;;;;46.38;18.90;;;1.00;99.90;;;-144.05;70.97;125687.94;5015704;28;20033;-88
2022/12/04 02:13:06;;;;;;;42.20;19.95;;;0.90;99.90;;;-144.05;70.86;125687.94;5016108;28;20085;-84
2022/12/04 02:15:57;;;;;;;41.25;18.00;;;0.90;99.90;;;-144.05;70.84;125687.94;5016612;28;20140;-86
2022/12/04 02:18:56;;;;;;;41.17;20.58;;;0.90;99.90;;;-144.05;70.98;125687.94;5015905;28;20504;-88
2022/12/04 02:21:39;;;;;;;41.33;18.40;;;0.90;99.90;;;-144.05;71.12;125687.94;5016305;28;20041;-84
2022/12/04 02:24:25;;;;;;;44.15;19.10;;;0.90;99.90;;;-144.05;70.91;125687.94;5015667;28;20038;-86
2022/12/04 02:27:03;;;;;;;41.03;18.08;;;0.90;99.90;;;-144.05;71.69;125687.94;5015763;28;20037;-87
2022/12/04 02:29:29;;;;;;;43.55;18.92;;;0.90;99.90;;;-144.05;72.06;125687.94;5019191;28;20092;-87
2022/12/04 02:32:11;;;;;;;41.67;19.55;;;0.90;99.90;;;-144.05;71.43;125687.94;5018764;28;20033;-86
2022/12/04 02:34:57;;;;;;;36.22;17.67;;;0.90;99.90;;;-144.05;71.44;125687.94;5013883;28;20025;-83
2022/12/04 02:37:31;;;;;;;;;;;0.90;99.90;;;-144.05;70.91;125687.94;5014266;28;20489;-84
2022/12/04 02:40:07;;;;;;;40.08;18.67;;;0.90;99.90;;;-144.05;71.48;125687.94;5013520;28;19995;-85
2022/12/04 02:42:48;;;;;;;38.50;17.38;;;1.00;99.90;;;-144.05;71.30;125687.94;5013962;28;20035;-84
2022/12/04 02:45:31;;;;;;;38.42;18.30;;;0.90;99.90;;;-144.05;71.32;125687.94;5013909;28;20091;-84
2022/12/04 02:48:04;;;;;;;41.03;18.63;;;0.90;99.90;;;-144.05;70.81;125687.94;5013724;28;20026;-84
2022/12/04 02:50:39;;;;;;;36.40;17.27;;;0.90;99.90;;;-144.05;71.34;125687.94;5013282;28;20060;-85
2022/12/04 02:53:16;;;;;;;29.27;12.90;;;0.90;99.90;;;-144.05;71.27;125687.94;5013992;28;20026;-85
2022/12/04 02:55:54;;;;;;;38.33;17.02;;;0.90;99.90;;;-144.05;71.27;125687.94;5013960;28;20030;-84
2022/12/04 02:58:38;;;;;;;37.33;16.30;;;0.90;99.90;;;-144.05;71.55;125687.94;5013695;28;20057;-84
2022/12/04 03:01:22;;;;;;;38.42;17.58;;;0.90;99.90;;;-144.05;71.58;125687.94;5014083;28;20389;-84
2022/12/04 03:04:17;;;;;;;38.92;17.95;;;0.90;99.90;;;-144.05;71.42;125687.94;5015771;28;20478;-84
2022/12/04 03:06:51;;;;;;;38.60;17.55;;;0.90;99.90;;;-144.05;71.51;125687.94;5015892;28;20038;-86
2022/12/04 03:09:26;;;;;;;35.92;17.08;;;0.90;99.90;;;-144.05;71.34;125687.94;5014425;28;20034;-86
2022/12/04 03:12:28;;;;;;;37.05;16.77;;;0.90;99.90;;;-144.05;71.08;125687.94;5015373;28;20034;-87
2022/12/04 03:15:06;;;;;;;34.88;15.65;;;0.90;99.90;;;-144.05;71.43;125687.94;5023674;28;20116;-85
2022/12/04 03:17:51;;;;;;;33.25;16.25;;;1.00;99.90;;;-144.05;71.18;125687.94;5021651;28;20084;-86
2022/12/04 03:20:20;;;;;;;34.42;16.77;;;1.00;99.90;;;-144.05;71.10;125687.94;5014096;28;20178;-84
2022/12/04 03:23:00;;;;;;;35.80;16.45;;;1.00;99.90;;;-144.05;70.93;125687.94;5013554;28;20064;-83
2022/12/04 03:25:42;;;;;;;35.38;16.10;;;1.00;99.90;;;-144.05;71.00;125687.94;5012156;28;20527;-85
2022/12/04 03:28:45;;;;;;;36.33;16.98;;;1.00;99.90;;;-144.05;70.89;125687.94;5013979;28;20375;-85
2022/12/04 03:31:17;;;;;;;40.50;16.80;;;1.00;99.90;;;-144.05;71.12;125687.94;5014175;28;20466;-85
2022/12/04 03:33:49;;;;;;;34.60;16.00;;;1.00;99.90;;;-144.05;70.96;125687.94;5013961;28;20022;-83
2022/12/04 03:36:33;;;;;;;41.30;16.33;;;1.00;99.90;;;-144.05;70.53;125687.94;5013150;28;20034;-84
2022/12/04 03:39:41;;;;;;;34.55;16.60;;;1.00;99.90;;;-144.05;70.99;125687.94;5012363;28;20049;-85
2022/12/04 03:42:20;;;;;;;32.85;15.52;;;1.00;99.90;;;-144.05;70.67;125687.94;5012631;28;20148;-86
2022/12/04 03:45:21;;;;;;;35.20;17.05;;;1.00;99.90;;;-144.05;70.86;125687.94;5012640;28;20061;-82
2022/12/04 03:48:11;;;;;;;36.95;16.73;;;1.00;99.90;;;-144.05;70.79;125687.94;5012016;28;20038;-85
2022/12/04 03:50:56;;;;;;;38.92;16.15;;;1.00;99.90;;;-144.05;70.76;125687.94;5012508;28;20060;-83
2022/12/04 03:53:40;;;;;;;34.75;17.02;;;1.00;99.90;;;-144.05;71.16;125687.94;5012677;28;20026;-85
2022/12/04 03:56:33;;;;;;;37.60;16.52;;;1.00;99.90;;;-144.05;70.96;125687.94;5012477;28;20021;-85
2022/12/04 03:59:13;;;;;;;42.80;17.65;;;1.00;99.90;;;-144.05;70.51;125687.94;5013611;28;20049;-85
2022/12/04 04:01:48;;;;;;;37.08;17.27;;;1.00;99.90;;;-144.05;70.53;125687.94;5012600;28;20037;-85
2022/12/04 04:04:29;;;;;;;32.97;15.50;;;1.00;99.90;;;-144.05;70.82;125687.94;5013853;28;20509;-85
2022/12/04 04:07:32;;;;;;;37.63;17.67;;;1.00;99.90;;;-144.05;70.46;125687.94;5012797;28;20048;-85
2022/12/04 04:10:15;;;;;;;32.92;15.63;;;1.00;99.90;;;-144.05;70.36;125687.94;5012788;28;20029;-85
2022/12/04 04:24:56;;;;;;;35.70;16.23;;;0.90;99.90;;;-144.05;70.29;125687.94;5015090;28;20081;-81
2022/12/04 04:27:22;;;;;;;36.38;17.95;;;0.90;99.90;;;-144.05;70.45;125687.94;5015071;28;20060;-83
2022/12/04 04:29:50;;;;;;;38.55;17.30;;;1.00;99.90;;;-144.05;70.33;125687.94;5012956;28;20088;-83
2022/12/04 04:33:12;;;;;;;39.83;19.35;;;1.00;99.90;;;-144.05;70.45;125687.94;5015571;28;20038;-84
2022/12/04 04:36:04;;;;;;;33.97;16.83;;;1.00;99.90;;;-144.05;70.62;125687.94;5015225;28;20026;-81
2022/12/04 04:39:10;;;;;;;35.90;16.17;;;1.00;99.90;;;-144.05;70.06;125687.94;5014955;28;20052;-81
2022/12/04 04:41:58;;;;;;;38.85;16.80;;;0.90;99.90;;;-144.05;70.19;125687.94;5011973;28;20056;-81
2022/12/04 04:44:27;;;;;;;36.08;17.65;;;1.00;99.90;;;-144.05;70.90;125687.94;5012230;28;20038;-83
2022/12/04 04:47:02;;;;;;;37.53;17.48;;;1.00;99.90;;;-144.05;70.30;125687.94;5013176;28;20030;-81
2022/12/04 04:49:34;;;;;;;36.97;18.23;;;1.00;99.90;;;-144.05;70.10;125687.94;5012764;28;20100;-81
2022/12/04 04:52:01;;;;;;;38.67;17.23;;;0.90;99.90;;;-144.05;70.31;125687.94;5011308;28;20040;-82
2022/12/04 04:54:31;;;;;;;34.28;17.35;;;1.00;99.90;;;-144.05;69.72;125687.94;5011759;28;20030;-82
2022/12/04 04:56:57;;;;;;;32.53;15.68;;;1.00;99.90;;;-144.05;69.77;125687.94;5013089;28;20026;-82
2022/12/04 04:59:22;;;;;;;36.47;16.27;;;1.00;99.90;;;-144.05;69.97;125687.94;5011083;28;20026;-82
2022/12/04 05:01:49;;;;;;;34.80;16.70;;;1.00;99.90;;;-144.05;70.14;125687.94;5013048;28;20052;-81
2022/12/04 05:04:14;;;;;;;30.67;16.02;;;1.00;99.90;;;-144.05;69.83;125687.94;5011805;28;20113;-81
2022/12/04 05:06:40;;;;;;;35.05;16.20;;;1.00;99.90;;;-144.05;70.10;125687.94;5011501;28;20084;-82
2022/12/04 05:09:06;;;;;;;33.15;16.33;;;1.10;99.90;;;-144.05;69.70;125687.94;5011275;28;20386;-82
2022/12/04 05:11:32;;;;;;;37.70;16.63;;;1.00;99.90;;;-144.05;69.80;125687.94;5012693;28;20030;-85
2022/12/04 05:13:58;;;;;;;38.63;16.92;;;1.00;99.90;;;-144.05;69.63;125687.94;5014867;28;20033;-84
2022/12/04 05:16:24;;;;;;;35.13;16.38;;;1.00;99.90;;;-144.05;69.75;125687.94;5015400;28;20124;-84
2022/12/04 05:21:34;;;;;;;34.05;17.65;;;1.00;99.90;;;-144.05;69.67;125687.94;5024169;28;20083;-82
2022/12/04 05:24:00;;;;;;;34.25;17.25;;;1.00;99.90;;;-144.05;69.45;125687.94;5013241;28;20061;-82
2022/12/04 05:26:26;;;;;;;28.60;14.75;;;1.00;99.90;;;-144.05;69.04;125687.94;5012731;28;20034;-83
2022/12/04 05:28:52;;;;;;;35.83;16.73;;;1.00;99.90;;;-144.05;69.36;125687.94;5012045;28;20129;-82
2022/12/04 05:31:18;;;;;;;36.53;16.10;;;1.00;99.90;;;-144.05;69.43;125687.94;5012839;28;20113;-83
2022/12/04 05:33:44;;;;;;;31.63;16.30;;;1.00;99.90;;;-144.05;70.12;125687.94;5012390;28;20125;-83
2022/12/04 05:36:12;;;;;;;34.95;17.38;;;1.00;99.90;;;-144.05;69.78;125687.94;5014145;28;20101;-84
2022/12/04 05:38:38;;;;;;;29.10;13.85;;;1.00;99.90;;;-144.05;69.12;125687.94;5012873;28;20125;-84
2022/12/04 05:41:06;;;;;;;28.38;15.13;;;1.00;99.90;;;-144.05;69.63;125687.94;5012900;28;20057;-82
2022/12/04 05:43:32;;;;;;;34.58;15.85;;;1.00;99.90;;;-144.05;69.58;125687.94;5014360;28;20112;-84
2022/12/04 05:46:05;;;;;;;31.10;14.70;;;1.10;99.90;;;-144.05;69.51;125687.94;5013340;28;20037;-82
2022/12/04 05:48:33;;;;;;;34.25;16.45;;;1.10;99.90;;;-144.05;69.81;125687.94;5014571;28;20145;-83
2022/12/04 05:51:00;;;;;;;33.10;15.43;;;1.00;99.90;;;-144.05;69.57;125687.94;5017158;28;20057;-84
2022/12/04 05:53:25;;;;;;;34.15;15.88;;;1.10;99.90;;;-144.05;69.14;125687.94;5017141;28;20051;-83
2022/12/04 05:56:02;;;;;;;31.83;17.20;;;1.10;99.90;;;-144.05;69.01;125687.94;5018336;28;20026;-84
2022/12/04 05:58:29;;;;;;;27.85;14.55;;;1.10;99.90;;;-144.05;69.47;125687.94;5019528;28;20110;-85
2022/12/04 06:00:55;;;;;;;29.63;14.73;;;1.10;99.90;;;-144.05;69.28;125687.94;5017933;28;20038;-83
2022/12/04 06:03:21;;;;;;;30.67;14.98;;;1.10;99.90;;;-144.05;69.09;125687.94;5017791;28;20037;-84
2022/12/04 06:05:47;;;;;;;28.17;13.80;;;1.10;99.90;;;-144.05;69.02;125687.94;5016508;28;20052;-82
2022/12/04 06:08:14;;;;;;;30.83;14.98;;;1.10;99.90;;;-144.05;69.32;125687.94;5014514;28;20034;-81
2022/12/04 06:10:40;;;;;;;32.35;14.20;;;1.10;99.90;;;-144.05;68.88;125687.94;5016647;28;20132;-83
2022/12/04 06:13:07;;;;;;;26.95;14.70;;;1.10;99.90;;;-144.05;70.31;125687.94;5017582;28;20033;-82
2022/12/04 06:15:38;;;;;;;27.05;14.18;;;1.10;99.90;;;-144.05;70.07;125687.94;5015901;28;20030;-82
2022/12/04 06:18:05;;;;;;;27.55;13.32;;;1.10;99.90;;;-144.05;69.55;125687.94;5015877;28;20066;-81
2022/12/04 06:20:32;;;;;;;29.42;13.70;;;1.10;99.90;;;-144.05;69.54;125687.94;5014308;28;20033;-81
2022/12/04 06:22:58;;;;;;;27.98;14.02;;;1.10;99.90;;;-144.05;69.60;125687.94;5014644;28;20034;-82
2022/12/04 06:25:23;;;;;;;27.17;14.05;;;1.10;99.90;;;-144.05;69.62;125687.94;5014358;28;20536;-81
2022/12/04 06:27:51;;;;;;;27.77;14.30;;;1.10;99.90;;;-144.05;69.52;125687.94;5015032;28;20038;-82
2022/12/04 06:30:17;;;;;;;29.05;13.93;;;1.20;99.90;;;-144.05;69.14;125687.94;5015875;28;20029;-82
2022/12/04 06:32:43;;;;;;;23.67;12.68;;;1.20;99.90;;;-144.05;69.34;125687.94;5015958;28;20119;-83
2022/12/04 06:35:09;;;;;;;30.35;14.10;;;1.20;99.90;;;-144.05;68.78;125687.94;5014438;28;20042;-81
2022/12/04 06:37:34;;;;;;;25.70;13.18;;;1.20;99.90;;;-144.05;69.41;125687.94;5014882;28;20025;-82
2022/12/04 06:40:00;;;;;;;25.20;12.63;;;1.20;99.90;;;-144.05;69.11;125687.94;5014557;28;20370;-83
2022/12/04 06:42:26;;;;;;;26.77;13.50;;;1.20;99.90;;;-144.05;69.49;125687.94;5016064;28;20129;-82
2022/12/04 06:44:52;;;;;;;27.95;14.20;;;1.20;99.90;;;-144.05;68.65;125687.94;5014940;28;20466;-83
2022/12/04 06:47:18;;;;;;;24.55;12.85;;;1.20;99.90;;;-144.05;68.90;125687.94;5014855;28;20401;-82
2022/12/04 06:49:48;;;;;;;24.63;13.80;;;1.20;99.90;;;-144.05;68.67;125687.94;5016342;28;20038;-82
2022/12/04 06:52:14;;;;;;;27.25;15.40;;;1.30;99.90;;;-144.05;68.79;125687.94;5015025;28;20072;-81
2022/12/04 06:54:40;;;;;;;28.95;14.77;;;1.30;99.90;;;-144.05;69.14;125687.94;5014856;28;20475;-83
2022/12/04 06:57:05;;;;;;;27.48;13.80;;;1.30;99.90;;;-144.05;68.87;125687.94;5014666;28;20029;-82
2022/12/04 06:59:32;;;;;;;29.40;14.20;;;1.30;99.90;;;-144.05;68.63;125687.94;5013886;28;20102;-82
2022/12/04 07:01:58;;;;;;;24.05;13.15;;;1.20;99.90;;;-144.05;68.91;125687.94;5017630;28;20443;-83
2022/12/04 07:04:24;;;;;;;27.85;13.73;;;1.30;99.90;;;-144.05;68.80;125687.94;5015362;28;20037;-82
2022/12/04 07:06:50;;;;;;;25.52;14.05;;;1.30;99.90;;;-144.05;68.87;125687.94;5015545;28;20034;-83
2022/12/04 07:09:17;;;;;;;28.42;15.13;;;1.30;99.90;;;-144.05;69.40;125687.94;5015248;28;20509;-85
2022/12/04 07:11:44;;;;;;;28.85;15.35;;;1.30;99.90;;;-144.05;69.34;125687.94;5014985;28;20030;-83
2022/12/04 07:14:12;;;;;;;28.77;14.63;;;1.30;99.90;;;-144.05;69.12;125687.94;5016295;28;20447;-84
2022/12/04 07:16:41;;;;;;;26.55;14.20;;;1.30;99.90;;;-144.05;69.09;125687.94;5016985;28;20038;-83
2022/12/04 07:19:10;;;;;;;27.80;14.00;;;1.30;99.90;;;-144.05;69.18;125687.94;5017845;28;20026;-84
2022/12/04 07:21:36;;;;;;;25.27;13.70;;;1.30;99.90;;;-144.05;69.65;125687.94;5019060;28;20422;-83
2022/12/04 07:24:02;;;;;;;25.48;13.35;;;1.30;99.90;;;-144.05;69.02;125687.94;5025071;28;20045;-84
2022/12/04 07:26:30;;;;;;;22.88;12.93;;;1.30;99.90;;;-144.05;68.82;125687.94;5022659;28;20057;-82
2022/12/04 07:28:58;;;;;;;28.92;14.07;;;1.30;99.90;;;-144.05;69.33;125687.94;5015592;28;20081;-82
2022/12/04 07:31:28;;;;;;;23.52;12.90;;;1.30;99.90;;;-144.05;69.28;125687.94;5014219;28;20057;-84
2022/12/04 07:33:56;;;;;;;24.60;12.95;;;1.30;99.90;;;-144.05;68.83;125687.94;5015417;28;20029;-84
2022/12/04 07:36:25;;;;;;;25.63;13.65;;;1.30;99.90;;;-144.05;68.75;125687.94;5015566;28;20034;-83
2022/12/04 07:38:54;;;;;;;24.27;14.00;;;1.30;99.90;;;-144.05;68.91;125687.94;5013276;28;20037;-82
2022/12/04 07:41:20;;;;;;;26.35;13.95;;;1.40;99.90;;;-144.05;69.46;125687.94;5015731;28;20029;-82
2022/12/04 07:43:47;;;;;;;28.90;13.82;;;1.30;99.90;;;-144.05;69.48;125687.94;5017104;28;20486;-83
2022/12/04 07:46:23;;;;;;;26.75;13.63;;;1.30;99.90;;;-144.05;69.04;125687.94;5014432;28;20129;-82
2022/12/04 07:48:49;;;;;;;26.45;12.32;;;1.40;99.90;;;-144.05;69.11;125687.94;5019394;28;20037;-82
2022/12/04 07:51:21;;;;;;;26.30;13.52;;;1.40;99.90;;;-144.05;68.74;125687.94;5014482;28;20030;-80
2022/12/04 07:53:50;;;;;;;26.75;12.57;;;1.40;99.90;;;-144.05;69.22;125687.94;5013426;28;20090;-81
2022/12/04 07:56:17;;;;;;;24.88;13.88;;;1.40;99.90;;;-144.05;68.79;125687.94;5013145;28;20054;-83
2022/12/04 07:58:44;;;;;;;27.77;13.75;;;1.40;99.90;;;-144.05;69.23;125687.94;5012953;28;20532;-84
2022/12/04 08:01:21;;;;;;;25.65;14.05;;;1.40;99.90;;;-144.05;69.18;125687.94;5014771;28;20083;-81
2022/12/04 08:03:53;;;;;;;31.08;13.75;;;1.40;99.90;;;-144.05;69.70;125687.94;5012800;28;20037;-81
2022/12/04 08:06:24;;;;;;;26.85;14.55;;;1.40;99.90;;;-144.05;69.31;125687.94;5014121;28;20038;-81
2022/12/04 08:08:51;;;;;;;24.27;14.25;;;1.40;99.90;;;-144.05;69.04;125687.94;5012056;28;20030;-81
2022/12/04 08:11:23;;;;;;;28.55;14.45;;;1.40;99.90;;;-144.05;69.34;125687.94;5012078;28;20072;-81
2022/12/04 08:14:03;;;;;;;26.23;14.15;;;1.40;99.90;;;-144.05;69.17;125687.94;5014114;28;20038;-81
2022/12/04 08:16:31;;;;;;;27.90;14.48;;;1.40;99.90;;;-144.05;69.26;125687.94;5012590;28;20092;-84
2022/12/04 08:18:59;;;;;;;26.45;14.32;;;1.40;99.90;;;-144.05;69.34;125687.94;5012299;28;20213;-83
2022/12/04 08:21:29;;;;;;;30.33;14.60;;;1.40;99.90;;;-144.05;69.59;125687.94;5014209;28;20034;-81
2022/12/04 08:23:59;;;;;;;28.48;14.52;;;1.40;99.90;;;-144.05;69.23;125687.94;5012295;28;20069;-82
2022/12/04 08:26:28;;;;;;;24.58;13.63;;;1.50;99.90;;;-144.05;69.55;125687.94;5013066;28;20168;-81
2022/12/04 08:28:57;;;;;;;30.50;15.45;;;1.50;99.90;;;-144.05;68.87;125687.94;5012147;28;20037;-81
2022/12/04 08:31:29;;;;;;;30.30;14.93;;;1.50;99.90;;;-144.05;69.18;125687.94;5012250;28;20034;-81
2022/12/04 08:33:58;;;;;;;26.20;12.98;;;1.50;99.90;;;-144.05;68.92;125687.94;5012679;28;20034;-81
2022/12/04 08:36:25;;;;;;;23.50;13.25;;;1.50;99.90;;;-144.05;68.76;125687.94;5012756;28;20033;-81
2022/12/04 08:38:51;;;;;;;26.98;14.13;;;1.50;99.90;;;-144.05;68.60;125687.94;5013753;28;20038;-81
2022/12/04 08:41:22;;;;;;;31.00;14.95;;;1.60;99.90;;;-144.05;68.65;125687.94;5013717;28;20030;-83
2022/12/04 08:43:49;;;;;;;27.17;14.45;;;1.60;99.90;;;-144.05;68.66;125687.94;5012898;28;20153;-84
2022/12/04 08:46:17;;;;;;;28.30;14.45;;;1.50;99.90;;;-144.05;68.79;125687.94;5013895;28;20040;-83
2022/12/04 08:48:44;;;;;;;31.75;15.40;;;1.60;99.90;;;-144.05;68.43;125687.94;5012293;28;20505;-82
2022/12/04 08:51:24;;;;;;;31.55;14.77;;;1.60;99.90;;;-144.05;68.67;125687.94;5012824;28;20040;-82
2022/12/04 08:54:01;;;;;;;30.98;14.95;;;1.60;99.90;;;-144.05;68.49;125687.94;5014120;28;20493;-82
2022/12/04 08:56:29;;;;;;;30.08;14.38;;;1.60;99.90;;;-144.05;68.72;125687.94;5013858;28;20030;-84
2022/12/04 08:58:57;;;;;;;31.25;15.35;;;1.60;99.90;;;-144.05;68.90;125687.94;5012793;28;20033;-84
2022/12/04 09:01:24;;;;;;;29.38;15.95;;;1.60;99.90;;;-144.05;68.79;125687.94;5014334;28;20034;-81
2022/12/04 09:03:50;;;;;;;27.83;14.93;;;1.60;99.90;;;-144.05;68.18;125687.94;5013056;28;20030;-82
2022/12/04 09:06:17;;;;;;;29.60;15.63;;;1.70;99.90;;;-144.05;68.54;125687.94;5014671;28;20103;-82
2022/12/04 09:08:44;;;;;;;28.50;14.63;;;1.70;99.90;;;-144.05;69.14;125687.94;5012473;28;20037;-85
2022/12/04 09:11:19;;;;;;;32.53;15.07;;;1.60;99.90;;;-144.05;68.72;125687.94;5013480;28;20113;-82
2022/12/04 09:13:46;;;;;;;30.30;16.00;;;1.60;99.90;;;-144.05;68.59;125687.94;5013354;28;20034;-81
2022/12/04 09:16:20;;;;;;;31.60;15.80;;;1.60;99.90;;;-144.05;68.55;125687.94;5014705;28;20044;-84
2022/12/04 09:18:48;;;;;;;29.38;14.48;;;1.70;99.90;;;-144.05;68.74;125687.94;5013651;28;20030;-81
2022/12/04 09:21:18;;;;;;;29.60;14.32;;;1.70;99.90;;;-144.05;68.54;125687.94;5016775;28;20038;-83
2022/12/04 09:23:45;;;;;;;34.63;15.82;;;1.70;99.90;;;-144.05;69.37;125687.94;5017950;28;20068;-82
2022/12/04 09:26:31;;;;;;;29.55;14.75;;;1.70;99.90;;;-144.05;69.41;125687.94;5024206;28;20041;-83
2022/12/04 09:29:02;;;;;;;32.72;16.52;;;1.70;99.90;;;-144.05;69.16;125687.94;5031294;28;20132;-84
2022/12/04 09:31:28;;;;;;;32.80;16.90;;;1.70;99.90;;;-144.05;68.43;125687.94;5036246;28;20038;-83
2022/12/04 09:34:00;;;;;;;28.00;15.20;;;1.70;99.90;;;-144.05;69.43;125687.94;5025322;28;20049;-85
2022/12/04 09:36:27;;;;;;;29.73;15.40;;;1.70;99.90;;;-144.05;69.29;125687.94;5021826;28;20390;-84
2022/12/04 09:38:56;;;;;;;30.85;15.02;;;1.70;99.90;;;-144.05;68.67;125687.94;5019511;28;20034;-83
2022/12/04 09:41:27;;;;;;;33.78;15.63;;;1.80;99.90;;;-144.05;68.89;125687.94;5021825;28;20517;-84
2022/12/04 09:44:13;;;;;;;31.70;16.13;;;1.80;99.90;;;-144.05;68.60;125687.94;5020577;28;20030;-84
2022/12/04 09:47:14;;;;;;;33.67;15.93;;;1.80;99.90;;;-144.05;69.35;125687.94;5020323;28;20080;-85
2022/12/04 09:49:57;;;;;;;31.63;16.17;;;1.90;99.90;;;-144.05;69.57;125687.94;5019406;28;20030;-84
2022/12/04 09:52:49;;;;;;;35.10;15.63;;;1.80;99.90;;;-144.05;69.51;125687.94;5019783;28;20045;-84
2022/12/04 09:55:44;;;;;;;33.97;16.35;;;1.80;99.90;;;-144.05;68.47;125687.94;5019873;28;20086;-83
2022/12/04 09:58:20;;;;;;;30.73;15.40;;;1.90;99.90;;;-144.05;68.68;125687.94;5019279;28;20030;-83
2022/12/04 10:00:52;;;;;;;35.83;16.58;;;1.90;99.90;;;-144.05;68.91;125687.94;5020779;28;20037;-81
2022/12/04 10:03:26;;;;;;;31.58;16.45;;;2.00;99.90;;;-144.05;69.05;125687.94;5021260;28;20076;-81
2022/12/04 10:06:13;;;;;;;31.95;14.88;;;2.00;99.90;;;-144.05;69.21;125687.94;5018968;28;20106;-81
2022/12/04 10:08:53;;;;;;;30.88;15.60;;;2.00;99.90;;;-144.05;68.76;125687.94;5019677;28;20347;-83
2022/12/04 10:11:24;;;;;;;30.42;15.23;;;2.00;99.90;;;-144.05;68.73;125687.94;5019680;28;20505;-84
2022/12/04 10:14:45;;;;;;;32.08;15.70;;;2.00;99.90;;;-144.05;68.67;125687.94;5020773;28;20034;-81
2022/12/04 10:17:53;;;;;;;43.47;20.30;;;2.00;99.90;;;-144.05;68.90;125687.94;5019889;28;20030;-83
2022/12/04 10:21:04;;;;;;;34.17;16.27;;;2.00;99.90;;;-144.05;69.23;125687.94;4981573;28;20072;-82
2022/12/04 10:24:14;;;;;;;27.83;14.15;;;2.10;99.90;;;-144.05;69.66;125687.94;4995928;28;20038;-83
2022/12/04 10:26:47;;;;;;;65.15;26.40;;;2.10;99.90;;;-144.05;69.68;125687.94;4991034;28;20105;-82
2022/12/04 10:29:28;;;;;;;31.83;16.38;;;2.00;99.90;;;-144.05;69.26;125687.94;5027766;28;20086;-81
2022/12/04 10:32:16;;;;;;;31.88;16.02;;;2.00;99.90;;;-144.05;69.90;125687.94;5025386;28;20053;-82